createdAt,value
2022-09-16T00:02:39.369Z,100.00
2022-09-16T00:05:26.378Z,100.00
2022-09-16T00:08:12.596Z,100.00
2022-09-16T00:11:02.348Z,100.00
2022-09-16T00:13:48.627Z,100.00
2022-09-16T00:16:34.912Z,100.00
2022-09-16T00:19:20.729Z,100.00
2022-09-16T00:22:07.224Z,100.00
2022-09-16T00:24:53.161Z,100.00
2022-09-16T00:27:39.150Z,100.00
2022-09-16T00:30:25.188Z,100.00
2022-09-16T00:33:11.337Z,100.00
2022-09-16T00:36:07.016Z,100.00
2022-09-16T00:38:55.243Z,100.00
2022-09-16T00:41:41.058Z,100.00
2022-09-16T00:44:46.349Z,100.00
2022-09-16T00:47:36.376Z,100.00
2022-09-16T00:50:38.351Z,100.00
2022-09-16T00:53:44.587Z,100.00
2022-09-16T00:56:31.611Z,100.00
2022-09-16T00:59:22.423Z,100.00
2022-09-16T01:02:12.865Z,100.00
2022-09-16T01:05:05.730Z,100.00
2022-09-16T01:07:52.842Z,100.00
2022-09-16T01:10:41.352Z,100.00
2022-09-16T01:13:27.970Z,100.00
2022-09-16T01:16:32.682Z,100.00
2022-09-16T01:19:26.391Z,100.00
2022-09-16T01:22:32.030Z,100.00
2022-09-16T01:25:18.379Z,100.00
2022-09-16T01:28:12.158Z,100.00
2022-09-16T01:31:01.403Z,100.00
2022-09-16T01:33:54.045Z,100.00
2022-09-16T01:36:59.207Z,100.00
2022-09-16T01:39:48.328Z,100.00
2022-09-16T01:42:51.981Z,100.00
2022-09-16T01:45:46.634Z,100.00
2022-09-16T01:48:53.866Z,100.00
2022-09-16T01:51:51.364Z,100.00
2022-09-16T01:54:53.699Z,100.00
2022-09-16T01:57:42.626Z,100.00
2022-09-16T02:00:31.651Z,100.00
2022-09-16T02:03:27.857Z,100.00
2022-09-16T02:06:17.827Z,100.00
2022-09-16T02:09:08.567Z,100.00
2022-09-16T02:11:55.277Z,100.00
2022-09-16T02:14:45.352Z,100.00
2022-09-16T02:17:33.649Z,100.00
2022-09-16T02:20:25.337Z,100.00
2022-09-16T02:23:16.666Z,100.00
2022-09-16T02:26:04.506Z,100.00
2022-09-16T02:28:53.863Z,100.00
2022-09-16T02:31:41.693Z,100.00
2022-09-16T02:34:32.794Z,100.00
2022-09-16T02:37:23.717Z,100.00
2022-09-16T02:40:17.880Z,100.00
2022-09-16T02:43:05.480Z,100.00
2022-09-16T02:46:11.626Z,100.00
2022-09-16T02:49:19.207Z,100.00
2022-09-16T02:52:14.951Z,100.00
2022-09-16T02:55:11.680Z,100.00
2022-09-16T02:57:58.177Z,100.00
2022-09-16T03:00:52.132Z,100.00
2022-09-16T03:03:38.805Z,100.00
2022-09-16T03:06:25.817Z,100.00
2022-09-16T03:09:13.656Z,100.00
2022-09-16T03:12:03.899Z,100.00
2022-09-16T03:15:12.693Z,100.00
2022-09-16T03:18:15.353Z,100.00
2022-09-16T03:21:11.225Z,100.00
2022-09-16T03:24:14.769Z,100.00
2022-09-16T03:27:03.861Z,100.00
2022-09-16T03:29:54.122Z,100.00
2022-09-16T03:32:44.935Z,100.00
2022-09-16T03:35:41.059Z,100.00
2022-09-16T03:38:29.224Z,100.00
2022-09-16T03:41:15.555Z,100.00
2022-09-16T03:44:04.366Z,100.00
2022-09-16T03:46:50.899Z,100.00
2022-09-16T03:49:43.360Z,100.00
2022-09-16T03:52:32.200Z,100.00
2022-09-16T03:55:19.134Z,100.00
2022-09-16T03:58:05.343Z,100.00
2022-09-16T04:00:52.216Z,100.00
2022-09-16T04:03:38.487Z,100.00
2022-09-16T04:06:26.614Z,100.00
2022-09-16T04:09:15.607Z,100.00
2022-09-16T04:12:04.584Z,100.00
2022-09-16T04:14:56.829Z,100.00
2022-09-16T04:17:42.931Z,100.00
2022-09-16T04:20:29.354Z,100.00
2022-09-16T04:23:15.451Z,100.00
2022-09-16T04:26:02.851Z,100.00
2022-09-16T04:28:48.992Z,100.00
2022-09-16T04:31:36.400Z,100.00
2022-09-16T04:34:24.875Z,100.00
2022-09-16T04:37:12.411Z,100.00
2022-09-16T04:40:03.658Z,100.00
2022-09-16T04:42:52.758Z,100.00
2022-09-16T04:45:40.673Z,100.00
2022-09-16T04:48:27.953Z,100.00
2022-09-16T04:51:20.962Z,100.00
2022-09-16T04:54:09.717Z,100.00
2022-09-16T04:57:04.841Z,100.00
2022-09-16T04:59:53.740Z,100.00
2022-09-16T05:02:40.927Z,100.00
2022-09-16T05:05:29.179Z,100.00
2022-09-16T05:08:15.311Z,100.00
2022-09-16T05:11:05.578Z,100.00
2022-09-16T05:13:53.234Z,100.00
2022-09-16T05:16:40.601Z,100.00
2022-09-16T05:19:27.133Z,100.00
2022-09-16T05:22:14.145Z,100.00
2022-09-16T05:25:01.816Z,100.00
2022-09-16T05:27:48.355Z,100.00
2022-09-16T05:30:36.732Z,100.00
2022-09-16T05:33:23.765Z,100.00
2022-09-16T05:36:12.053Z,100.00
2022-09-16T05:39:21.619Z,100.00
2022-09-16T05:42:06.761Z,100.00
2022-09-16T05:44:53.269Z,100.00
2022-09-16T05:47:40.753Z,100.00
2022-09-16T05:50:28.692Z,100.00
2022-09-16T05:53:16.169Z,100.00
2022-09-16T05:56:06.418Z,100.00
2022-09-16T05:58:53.738Z,100.00
2022-09-16T06:01:39.886Z,100.00
2022-09-16T06:04:27.714Z,100.00
2022-09-16T06:07:15.002Z,100.00
2022-09-16T06:10:02.214Z,100.00
2022-09-16T06:12:50.878Z,100.00
2022-09-16T06:15:37.313Z,100.00
2022-09-16T06:18:24.458Z,100.00
2022-09-16T06:21:12.923Z,100.00
2022-09-16T06:24:00.512Z,100.00
2022-09-16T06:26:50.816Z,100.00
2022-09-16T06:32:33.631Z,100.00
2022-09-16T06:35:22.691Z,100.00
2022-09-16T06:38:10.135Z,100.00
2022-09-16T06:41:04.639Z,100.00
2022-09-16T06:43:52.723Z,100.00
2022-09-16T06:46:48.746Z,100.00
2022-09-16T06:49:36.711Z,100.00
2022-09-16T06:52:25.348Z,100.00
2022-09-16T06:55:15.470Z,100.00
2022-09-16T06:58:03.844Z,100.00
2022-09-16T07:00:51.731Z,100.00
2022-09-16T07:03:50.706Z,100.00
2022-09-16T07:07:08.276Z,100.00
2022-09-16T07:09:44.174Z,100.00
2022-09-16T07:12:31.997Z,100.00
2022-09-16T07:15:17.976Z,100.00
2022-09-16T07:18:12.862Z,100.00
2022-09-16T07:21:08.743Z,100.00
2022-09-16T07:23:58.708Z,100.00
2022-09-16T07:26:45.899Z,100.00
2022-09-16T07:29:33.094Z,100.00
2022-09-16T07:32:22.640Z,100.00
2022-09-16T07:35:10.341Z,100.00
2022-09-16T07:37:57.134Z,100.00
2022-09-16T07:40:45.366Z,100.00
2022-09-16T07:43:32.282Z,100.00
2022-09-16T07:46:23.882Z,100.00
2022-09-16T07:49:12.634Z,100.00
2022-09-16T07:52:00.757Z,100.00
2022-09-16T07:54:48.884Z,100.00
2022-09-16T07:57:37.395Z,100.00
2022-09-16T08:00:27.039Z,100.00
2022-09-16T08:03:17.731Z,100.00
2022-09-16T08:06:09.666Z,100.00
2022-09-16T08:08:59.823Z,100.00
2022-09-16T08:11:56.512Z,100.00
2022-09-16T08:14:44.877Z,100.00
2022-09-16T08:17:33.498Z,100.00
2022-09-16T08:20:22.276Z,100.00
2022-09-16T08:23:14.413Z,100.00
2022-09-16T08:26:01.844Z,100.00
2022-09-16T08:29:08.995Z,100.00
2022-09-16T08:31:56.684Z,100.00
2022-09-16T08:34:44.168Z,100.00
2022-09-16T08:37:32.883Z,100.00
2022-09-16T08:40:24.987Z,100.00
2022-09-16T08:43:15.258Z,100.00
2022-09-16T08:46:03.677Z,100.00
2022-09-16T08:48:58.597Z,100.00
2022-09-16T08:51:48.741Z,100.00
2022-09-16T08:54:39.995Z,100.00
2022-09-16T08:57:26.951Z,100.00
2022-09-16T09:00:14.907Z,100.00
2022-09-16T09:03:01.455Z,100.00
2022-09-16T09:05:51.405Z,100.00
2022-09-16T09:08:57.122Z,100.00
2022-09-16T09:12:02.743Z,100.00
2022-09-16T09:15:07.112Z,100.00
2022-09-16T09:18:30.022Z,100.00
2022-09-16T09:21:22.421Z,100.00
2022-09-16T09:24:26.973Z,100.00
2022-09-16T09:27:16.843Z,100.00
2022-09-16T09:30:13.651Z,100.00
2022-09-16T09:33:34.282Z,100.00
2022-09-16T09:36:32.766Z,100.00
2022-09-16T09:39:26.124Z,100.00
2022-09-16T09:42:34.684Z,100.00
2022-09-16T09:45:24.729Z,100.00
2022-09-16T09:48:20.478Z,100.00
2022-09-16T09:51:13.983Z,100.00
2022-09-16T09:54:10.910Z,100.00
2022-09-16T09:57:03.283Z,98.53
2022-09-16T09:59:58.780Z,99.98
2022-09-16T10:02:49.753Z,93.09
2022-09-16T10:05:40.787Z,96.27
2022-09-16T10:08:41.485Z,94.69
2022-09-16T10:11:38.745Z,89.66
2022-09-16T10:14:33.199Z,88.89
2022-09-16T10:17:27.784Z,90.92
2022-09-16T10:20:29.965Z,89.21
2022-09-16T10:23:26.351Z,88.54
2022-09-16T10:26:27.948Z,87.91
2022-09-16T10:29:18.122Z,84.92
2022-09-16T10:32:09.952Z,85.60
2022-09-16T10:34:58.884Z,87.34
2022-09-16T10:37:52.976Z,85.47
2022-09-16T10:40:54.877Z,87.06
2022-09-16T10:43:49.703Z,87.76
2022-09-16T10:46:38.666Z,88.38
2022-09-16T10:49:48.721Z,88.42
2022-09-16T10:52:44.825Z,81.99
2022-09-16T10:55:36.650Z,86.15
2022-09-16T10:58:24.778Z,85.80
2022-09-16T11:01:23.281Z,89.17
2022-09-16T11:04:33.204Z,87.76
2022-09-16T11:07:46.728Z,89.77
2022-09-16T11:10:45.383Z,88.38
2022-09-16T11:13:47.662Z,87.23
2022-09-16T11:17:12.730Z,86.73
2022-09-16T11:20:06.715Z,86.57
2022-09-16T11:23:20.271Z,77.36
2022-09-16T11:26:46.020Z,80.46
2022-09-16T11:29:49.727Z,79.57
2022-09-16T11:32:52.010Z,77.07
2022-09-16T11:36:01.813Z,78.53
2022-09-16T11:39:06.926Z,81.85
2022-09-16T11:42:07.740Z,77.02
2022-09-16T11:45:22.909Z,75.80
2022-09-16T11:48:28.878Z,76.51
2022-09-16T11:51:31.958Z,78.31
2022-09-16T11:54:47.949Z,78.22
2022-09-16T11:57:44.452Z,74.47
2022-09-16T12:00:32.908Z,75.66
2022-09-16T12:03:36.239Z,73.17
2022-09-16T12:06:25.739Z,76.65
2022-09-16T12:09:26.852Z,74.74
2022-09-16T12:12:24.879Z,77.74
2022-09-16T12:15:23.812Z,78.51
2022-09-16T12:18:17.941Z,75.38
2022-09-16T12:21:12.771Z,74.54
2022-09-16T12:24:06.905Z,76.59
2022-09-16T12:27:05.846Z,72.81
2022-09-16T12:30:02.323Z,76.22
2022-09-16T12:33:03.751Z,76.01
2022-09-16T12:36:13.785Z,78.35
2022-09-16T12:42:06.744Z,74.00
2022-09-16T12:48:24.161Z,80.94
2022-09-16T12:51:10.944Z,75.99
2022-09-16T12:54:16.815Z,78.51
2022-09-16T12:57:09.946Z,78.60
2022-09-16T13:03:21.816Z,78.30
2022-09-16T13:06:29.691Z,80.94
2022-09-16T13:09:27.412Z,82.55
2022-09-16T13:12:41.517Z,79.46
2022-09-16T13:15:36.969Z,76.42
2022-09-16T13:18:29.026Z,79.41
2022-09-16T13:21:29.903Z,77.98
2022-09-16T13:24:38.825Z,75.56
2022-09-16T13:27:30.746Z,81.79
2022-09-16T13:30:31.449Z,82.30
2022-09-16T13:33:33.853Z,82.22
2022-09-16T13:36:30.709Z,81.31
2022-09-16T13:39:32.103Z,87.30
2022-09-16T13:42:25.677Z,82.55
2022-09-16T13:45:41.352Z,81.96
2022-09-16T13:48:28.188Z,83.45
2022-09-16T13:51:22.050Z,82.44
2022-09-16T13:54:48.021Z,80.19
2022-09-16T13:57:53.730Z,86.55
2022-09-16T14:01:00.925Z,87.52
2022-09-16T14:03:54.809Z,86.36
2022-09-16T14:06:50.200Z,89.15
2022-09-16T14:09:51.497Z,89.77
2022-09-16T14:13:01.132Z,90.18
2022-09-16T14:15:58.289Z,86.12
2022-09-16T14:19:07.821Z,82.50
2022-09-16T14:25:06.029Z,86.65
2022-09-16T14:28:20.754Z,87.88
2022-09-16T14:31:12.742Z,87.72
2022-09-16T14:34:02.036Z,88.55
2022-09-16T14:36:48.120Z,94.15
2022-09-16T14:39:43.733Z,93.09
2022-09-16T14:42:38.030Z,91.88
2022-09-16T14:45:30.746Z,88.07
2022-09-16T14:48:28.057Z,89.46
2022-09-16T14:51:26.043Z,92.74
2022-09-16T14:57:19.431Z,91.98
2022-09-16T15:00:12.093Z,90.92
2022-09-16T15:03:07.027Z,89.66
2022-09-16T15:05:55.932Z,92.10
2022-09-16T15:09:00.199Z,91.24
2022-09-16T15:11:56.961Z,92.23
2022-09-16T15:14:47.003Z,92.93
2022-09-16T15:17:42.768Z,93.67
2022-09-16T15:20:38.916Z,91.09
2022-09-16T15:23:30.321Z,91.60
2022-09-16T15:26:25.184Z,93.78
2022-09-16T15:29:39.724Z,95.09
2022-09-16T15:32:31.986Z,94.76
2022-09-16T15:35:25.798Z,94.72
2022-09-16T15:38:20.416Z,93.86
2022-09-16T15:41:18.007Z,93.31
2022-09-16T15:44:23.873Z,95.24
2022-09-16T15:47:25.717Z,94.39
2022-09-16T15:50:21.748Z,100.00
2022-09-16T15:53:24.734Z,100.00
2022-09-16T15:56:28.021Z,99.39
2022-09-16T15:59:32.766Z,100.00
2022-09-16T16:02:21.171Z,100.00
2022-09-16T16:05:15.594Z,98.62
2022-09-16T16:14:06.067Z,97.76
2022-09-16T16:23:09.448Z,100.00
2022-09-16T16:26:13.785Z,100.00
2022-09-16T16:29:13.594Z,100.00
2022-09-16T16:32:02.251Z,97.27
2022-09-16T16:34:59.095Z,98.93
2022-09-16T16:40:56.986Z,93.63
2022-09-16T16:43:55.787Z,91.04
2022-09-16T16:46:55.944Z,91.26
2022-09-16T16:49:52.796Z,91.16
2022-09-16T16:52:58.170Z,89.85
2022-09-16T16:55:47.375Z,89.07
2022-09-16T16:58:47.746Z,95.76
2022-09-16T17:01:48.430Z,88.99
2022-09-16T17:04:43.376Z,89.55
2022-09-16T17:07:41.761Z,86.44
2022-09-16T17:10:38.199Z,90.48
2022-09-16T17:13:36.994Z,86.90
2022-09-16T17:16:36.793Z,86.43
2022-09-16T17:19:28.601Z,86.53
2022-09-16T17:22:16.566Z,87.90
2022-09-16T17:28:08.116Z,87.41
2022-09-16T17:31:12.969Z,88.37
2022-09-16T17:34:15.322Z,90.06
2022-09-16T17:37:04.342Z,89.55
2022-09-16T17:40:01.969Z,89.17
2022-09-16T17:42:59.623Z,85.84
2022-09-16T17:46:03.999Z,89.93
2022-09-16T17:49:11.875Z,87.78
2022-09-16T17:52:04.727Z,97.34
2022-09-16T17:54:51.786Z,94.13
2022-09-16T17:57:46.798Z,94.37
2022-09-16T18:00:35.156Z,97.30
2022-09-16T18:03:32.990Z,93.66
2022-09-16T18:06:39.801Z,96.89
2022-09-16T18:09:43.354Z,89.62
2022-09-16T18:12:49.827Z,89.21
2022-09-16T18:15:49.888Z,87.76
2022-09-16T18:18:43.408Z,88.05
2022-09-16T18:24:44.770Z,89.90
2022-09-16T18:27:44.370Z,93.63
2022-09-16T18:30:47.940Z,89.01
2022-09-16T18:37:01.782Z,89.63
2022-09-16T18:39:55.104Z,87.75
2022-09-16T18:43:01.166Z,86.32
2022-09-16T18:45:52.813Z,86.57
2022-09-16T18:48:56.556Z,87.19
2022-09-16T18:58:03.741Z,88.09
2022-09-16T19:00:53.992Z,94.38
2022-09-16T19:03:57.765Z,93.40
2022-09-16T19:07:01.830Z,92.31
2022-09-16T19:09:52.058Z,89.90
2022-09-16T19:12:52.848Z,89.94
2022-09-16T19:15:58.757Z,89.21
2022-09-16T19:18:52.174Z,92.82
2022-09-16T19:24:38.537Z,97.48
2022-09-16T19:27:34.945Z,96.28
2022-09-16T19:30:39.997Z,93.50
2022-09-16T19:33:30.866Z,98.42
2022-09-16T19:39:43.768Z,95.48
2022-09-16T19:42:33.374Z,95.63
2022-09-16T19:45:41.290Z,99.53
2022-09-16T19:48:41.499Z,94.88
2022-09-16T19:51:35.004Z,96.53
2022-09-16T19:54:32.706Z,93.89
2022-09-16T19:57:24.048Z,98.34
2022-09-16T20:00:41.287Z,100.00
2022-09-16T20:03:35.040Z,98.53
2022-09-16T20:06:38.041Z,100.00
2022-09-16T20:09:41.999Z,100.00
2022-09-16T20:12:31.417Z,99.87
2022-09-16T20:15:22.346Z,100.00
2022-09-16T20:18:10.880Z,99.32
2022-09-16T20:21:03.081Z,100.00
2022-09-16T20:23:55.758Z,100.00
2022-09-16T20:26:54.766Z,100.00
2022-09-16T20:29:41.774Z,100.00
2022-09-16T20:32:35.683Z,100.00
2022-09-16T20:35:29.739Z,100.00
2022-09-16T20:38:26.128Z,100.00
2022-09-16T20:41:21.884Z,100.00
2022-09-16T20:44:16.740Z,100.00
2022-09-16T20:47:09.733Z,100.00
2022-09-16T20:49:56.053Z,100.00
2022-09-16T20:52:43.928Z,100.00
2022-09-16T20:55:42.003Z,100.00
2022-09-16T20:58:31.995Z,100.00
2022-09-16T21:01:26.762Z,100.00
2022-09-16T21:04:16.960Z,100.00
2022-09-16T21:07:14.718Z,100.00
2022-09-16T21:10:03.724Z,100.00
2022-09-16T21:12:51.175Z,100.00
2022-09-16T21:15:38.719Z,100.00
2022-09-16T21:18:28.013Z,100.00
2022-09-16T21:21:22.713Z,100.00
2022-09-16T21:24:10.822Z,100.00
2022-09-16T21:26:58.441Z,100.00
2022-09-16T21:29:50.614Z,100.00
2022-09-16T21:32:37.023Z,100.00
2022-09-16T21:35:23.222Z,100.00
2022-09-16T21:38:10.991Z,100.00
2022-09-16T21:41:01.690Z,100.00
2022-09-16T21:43:49.927Z,100.00
2022-09-16T21:46:41.934Z,100.00
2022-09-16T21:49:30.760Z,100.00
2022-09-16T21:52:20.289Z,100.00
2022-09-16T21:55:07.778Z,100.00
2022-09-16T21:57:54.400Z,100.00
2022-09-16T22:00:41.133Z,100.00
2022-09-16T22:03:27.267Z,100.00
2022-09-16T22:06:14.217Z,100.00
2022-09-16T22:09:01.661Z,100.00
2022-09-16T22:11:49.238Z,100.00
2022-09-16T22:14:35.333Z,100.00
2022-09-16T22:17:21.839Z,100.00
2022-09-16T22:20:08.890Z,100.00
2022-09-16T22:22:56.435Z,100.00
2022-09-16T22:25:42.392Z,100.00
2022-09-16T22:28:28.890Z,100.00
2022-09-16T22:31:18.752Z,100.00
2022-09-16T22:34:06.792Z,100.00
2022-09-16T22:36:53.654Z,100.00
2022-09-16T22:39:40.152Z,100.00
2022-09-16T22:42:27.035Z,100.00
2022-09-16T22:45:13.106Z,100.00
2022-09-16T22:47:59.876Z,100.00
2022-09-16T22:50:54.441Z,100.00
2022-09-16T22:53:40.887Z,100.00
2022-09-16T22:56:29.755Z,100.00
2022-09-16T22:59:17.590Z,100.00
2022-09-16T23:02:04.360Z,100.00
2022-09-16T23:04:51.039Z,100.00
2022-09-16T23:07:39.043Z,100.00
2022-09-16T23:10:44.260Z,100.00
2022-09-16T23:13:31.667Z,100.00
2022-09-16T23:16:21.574Z,100.00
2022-09-16T23:19:08.706Z,100.00
2022-09-16T23:21:54.968Z,100.00
2022-09-16T23:24:42.031Z,100.00
2022-09-16T23:27:27.951Z,100.00
2022-09-16T23:30:13.942Z,100.00
2022-09-16T23:33:00.791Z,100.00
2022-09-16T23:35:50.277Z,100.00
2022-09-16T23:38:38.253Z,100.00
2022-09-16T23:41:27.562Z,100.00
2022-09-16T23:44:14.976Z,100.00
2022-09-16T23:47:01.378Z,100.00
2022-09-16T23:49:48.239Z,100.00
2022-09-16T23:52:34.520Z,100.00
2022-09-16T23:55:20.933Z,100.00
2022-09-16T23:58:07.064Z,100.00
